createdAt,value
2024-01-30T00:02:16.251Z,0.72
2024-01-30T00:07:19.675Z,0.72
2024-01-30T00:12:24.288Z,0.67
2024-01-30T00:17:27.454Z,1.12
2024-01-30T00:22:31.501Z,1.50
2024-01-30T00:27:36.101Z,1.77
2024-01-30T00:32:39.470Z,1.97
2024-01-30T00:37:42.823Z,2.09
2024-01-30T00:42:47.341Z,2.02
2024-01-30T00:47:50.705Z,2.09
2024-01-30T00:52:53.937Z,2.20
2024-01-30T00:57:58.586Z,2.23
2024-01-30T01:03:01.733Z,2.16
2024-01-30T01:08:05.280Z,2.02
2024-01-30T01:13:09.822Z,2.18
2024-01-30T01:18:12.911Z,2.25
2024-01-30T01:23:16.241Z,2.26
2024-01-30T01:28:20.749Z,2.16
2024-01-30T01:33:23.947Z,2.06
2024-01-30T01:38:27.269Z,1.86
2024-01-30T01:43:31.954Z,1.60
2024-01-30T01:48:35.760Z,1.46
2024-01-30T01:53:39.292Z,1.45
2024-01-30T01:58:44.116Z,1.55
2024-01-30T02:03:47.944Z,1.52
2024-01-30T02:08:51.125Z,1.60
2024-01-30T02:13:55.607Z,1.62
2024-01-30T02:18:58.822Z,1.45
2024-01-30T02:24:04.621Z,1.30
2024-01-30T02:29:07.692Z,1.40
2024-01-30T02:34:10.925Z,1.36
2024-01-30T02:39:15.475Z,1.37
2024-01-30T02:44:20.299Z,1.31
2024-01-30T02:49:23.634Z,1.23
2024-01-30T02:54:28.275Z,1.08
2024-01-30T02:59:34.281Z,0.90
2024-01-30T03:04:37.462Z,0.67
2024-01-30T03:09:43.433Z,0.52
2024-01-30T03:14:46.545Z,0.37
2024-01-30T03:19:49.776Z,0.27
2024-01-30T03:24:54.322Z,0.44
2024-01-30T03:29:57.544Z,0.50
2024-01-30T03:35:00.893Z,0.54
2024-01-30T03:40:06.511Z,0.58
2024-01-30T03:45:10.592Z,0.55
2024-01-30T03:50:13.856Z,0.49
2024-01-30T03:55:18.433Z,0.44
2024-01-30T04:00:21.641Z,0.45
2024-01-30T04:05:24.729Z,0.47
2024-01-30T04:10:29.653Z,0.35
2024-01-30T04:15:34.086Z,0.22
2024-01-30T04:20:37.214Z,0.13
2024-01-30T04:25:41.643Z,0.03
2024-01-30T04:30:44.706Z,-0.04
2024-01-30T04:35:47.777Z,0.01
2024-01-30T04:40:52.245Z,-0.03
2024-01-30T04:45:55.332Z,-0.08
2024-01-30T04:50:58.454Z,-0.04
2024-01-30T04:56:02.861Z,-0.06
2024-01-30T05:01:06.225Z,0.05
2024-01-30T05:06:09.631Z,0.05
2024-01-30T05:11:14.183Z,0.20
2024-01-30T05:16:17.302Z,0.23
2024-01-30T05:21:20.436Z,0.21
2024-01-30T05:26:24.875Z,0.23
2024-01-30T05:31:28.369Z,0.22
2024-01-30T05:36:31.696Z,0.19
2024-01-30T05:41:36.140Z,0.25
2024-01-30T05:46:39.374Z,0.22
2024-01-30T05:51:42.603Z,0.20
2024-01-30T05:56:47.180Z,0.19
2024-01-30T06:01:51.041Z,0.26
2024-01-30T06:06:54.584Z,0.36
2024-01-30T06:11:59.072Z,0.50
2024-01-30T06:17:02.163Z,0.48
2024-01-30T06:22:05.766Z,0.54
2024-01-30T06:27:10.616Z,0.59
2024-01-30T06:32:13.734Z,0.58
2024-01-30T06:37:16.847Z,0.52
2024-01-30T06:42:21.567Z,0.52
2024-01-30T06:47:24.686Z,0.57
2024-01-30T06:52:28.119Z,0.49
2024-01-30T06:57:32.811Z,0.46
2024-01-30T07:02:35.984Z,0.45
2024-01-30T07:07:39.138Z,0.38
2024-01-30T07:12:43.653Z,0.34
2024-01-30T07:17:46.985Z,0.34
2024-01-30T07:22:50.164Z,0.25
2024-01-30T07:27:54.608Z,0.29
2024-01-30T07:32:57.761Z,0.35
2024-01-30T07:38:00.930Z,0.32
2024-01-30T07:43:05.845Z,0.39
2024-01-30T07:48:09.379Z,0.49
2024-01-30T07:53:12.713Z,0.46
2024-01-30T07:58:17.179Z,0.53
2024-01-30T08:03:20.296Z,0.61
2024-01-30T08:08:23.428Z,0.73
2024-01-30T08:13:27.894Z,0.77
2024-01-30T08:18:31.049Z,0.96
2024-01-30T08:23:34.169Z,1.18
2024-01-30T08:28:38.745Z,1.27
2024-01-30T08:33:43.546Z,1.48
2024-01-30T08:38:47.364Z,1.61
2024-01-30T08:43:51.794Z,1.77
2024-01-30T08:48:55.090Z,1.85
2024-01-30T08:53:58.498Z,2.08
2024-01-30T08:59:02.960Z,2.43
2024-01-30T09:04:06.431Z,2.71
2024-01-30T09:09:10.408Z,2.75
2024-01-30T09:14:15.208Z,2.83
2024-01-30T09:19:18.454Z,2.74
2024-01-30T09:24:21.627Z,2.68
2024-01-30T09:29:26.099Z,2.85
2024-01-30T09:34:29.538Z,2.89
2024-01-30T09:39:32.774Z,2.99
2024-01-30T09:44:38.143Z,3.07
2024-01-30T09:49:44.368Z,3.13
2024-01-30T09:54:47.782Z,3.13
2024-01-30T09:59:55.626Z,3.14
2024-01-30T10:04:58.858Z,3.34
2024-01-30T10:10:02.795Z,3.56
2024-01-30T10:15:09.802Z,3.90
2024-01-30T10:20:13.956Z,4.03
2024-01-30T10:25:18.055Z,3.91
2024-01-30T10:30:22.772Z,3.87
2024-01-30T10:35:26.165Z,3.94
2024-01-30T10:40:30.733Z,4.01
2024-01-30T10:45:37.877Z,4.05
2024-01-30T10:50:50.645Z,4.08
2024-01-30T10:55:57.836Z,3.99
2024-01-30T11:01:03.362Z,4.17
2024-01-30T11:06:07.115Z,4.40
2024-01-30T11:11:13.450Z,4.51
2024-01-30T11:16:19.482Z,4.64
2024-01-30T11:21:22.572Z,4.63
2024-01-30T11:26:29.790Z,4.67
2024-01-30T11:31:34.581Z,4.67
2024-01-30T11:36:39.161Z,4.65
2024-01-30T11:41:43.341Z,4.86
2024-01-30T11:46:48.014Z,5.07
2024-01-30T11:51:51.196Z,5.38
2024-01-30T11:56:54.395Z,5.65
2024-01-30T12:01:59.191Z,5.71
2024-01-30T12:07:04.712Z,5.80
2024-01-30T12:12:13.051Z,5.84
2024-01-30T12:17:28.541Z,6.12
2024-01-30T12:22:31.905Z,6.26
2024-01-30T12:27:35.148Z,6.48
2024-01-30T12:32:42.853Z,6.72
2024-01-30T12:37:47.513Z,6.80
2024-01-30T12:42:51.125Z,6.64
2024-01-30T12:47:56.294Z,6.67
2024-01-30T12:53:00.091Z,6.64
2024-01-30T12:58:04.107Z,6.50
2024-01-30T13:03:09.530Z,6.41
2024-01-30T13:08:12.649Z,6.38
2024-01-30T13:13:19.907Z,6.40
2024-01-30T13:18:25.337Z,6.45
2024-01-30T13:23:28.528Z,6.48
2024-01-30T13:28:31.820Z,6.43
2024-01-30T13:33:36.364Z,6.54
2024-01-30T13:38:40.249Z,6.61
2024-01-30T13:43:43.399Z,6.60
2024-01-30T13:48:48.368Z,6.69
2024-01-30T13:53:51.874Z,6.72
2024-01-30T13:58:56.778Z,6.71
2024-01-30T14:04:01.348Z,6.76
2024-01-30T14:09:08.476Z,6.82
2024-01-30T14:14:12.714Z,6.78
2024-01-30T14:19:17.161Z,6.80
2024-01-30T14:24:20.257Z,6.74
2024-01-30T14:29:23.383Z,6.73
2024-01-30T14:34:28.323Z,6.67
2024-01-30T14:39:31.443Z,6.56
2024-01-30T14:44:34.640Z,6.58
2024-01-30T14:49:39.156Z,6.44
2024-01-30T14:54:42.396Z,6.44
2024-01-30T14:59:45.616Z,6.38
2024-01-30T15:04:50.232Z,6.35
2024-01-30T15:09:53.402Z,6.29
2024-01-30T15:14:56.612Z,6.24
2024-01-30T15:20:01.521Z,6.17
2024-01-30T15:25:05.460Z,6.11
2024-01-30T15:30:09.751Z,6.14
2024-01-30T15:35:14.626Z,6.11
2024-01-30T15:40:17.859Z,6.08
2024-01-30T15:45:21.381Z,6.02
2024-01-30T15:50:25.909Z,6.09
2024-01-30T15:55:29.141Z,6.14
2024-01-30T16:00:32.332Z,6.12
2024-01-30T16:05:36.947Z,6.09
2024-01-30T16:10:40.091Z,6.14
2024-01-30T16:15:44.737Z,6.07
2024-01-30T16:20:49.230Z,6.04
2024-01-30T16:25:52.300Z,6.02
2024-01-30T16:30:55.450Z,5.88
2024-01-30T16:35:59.973Z,5.94
2024-01-30T16:41:03.086Z,5.86
2024-01-30T16:46:06.391Z,5.88
2024-01-30T16:51:10.865Z,5.95
2024-01-30T16:56:14.174Z,5.86
2024-01-30T17:01:17.678Z,5.90
2024-01-30T17:06:22.354Z,5.82
2024-01-30T17:11:25.570Z,5.75
2024-01-30T17:16:28.828Z,5.65
2024-01-30T17:21:35.290Z,5.50
2024-01-30T17:26:41.223Z,5.45
2024-01-30T17:31:49.316Z,5.36
2024-01-30T17:36:53.838Z,5.33
2024-01-30T17:41:56.970Z,5.34
2024-01-30T17:47:00.105Z,5.23
2024-01-30T17:52:05.508Z,5.20
2024-01-30T17:57:08.619Z,5.11
2024-01-30T18:02:13.382Z,5.10
2024-01-30T18:07:18.044Z,5.12
2024-01-30T18:12:21.142Z,5.07
2024-01-30T18:17:24.266Z,5.03
2024-01-30T18:22:28.899Z,4.98
2024-01-30T18:27:32.095Z,4.91
2024-01-30T18:32:35.248Z,4.81
2024-01-30T18:37:39.887Z,4.73
2024-01-30T18:42:43.080Z,4.61
2024-01-30T18:47:46.227Z,4.50
2024-01-30T18:52:52.812Z,4.41
2024-01-30T18:57:56.291Z,4.33
2024-01-30T19:02:59.509Z,4.26
2024-01-30T19:08:04.026Z,4.18
2024-01-30T19:13:07.419Z,4.18
2024-01-30T19:18:13.367Z,4.15
2024-01-30T19:23:18.464Z,4.11
2024-01-30T19:28:21.799Z,4.11
2024-01-30T19:33:25.013Z,4.20
2024-01-30T19:38:29.445Z,4.30
2024-01-30T19:43:32.607Z,4.40
2024-01-30T19:48:35.861Z,4.48
2024-01-30T19:53:40.413Z,4.57
2024-01-30T19:58:43.570Z,4.57
2024-01-30T20:03:46.719Z,4.60
2024-01-30T20:08:51.141Z,4.68
2024-01-30T20:13:54.249Z,4.76
2024-01-30T20:18:57.613Z,4.81
2024-01-30T20:24:02.938Z,4.83
2024-01-30T20:29:06.038Z,4.88
2024-01-30T20:34:09.346Z,4.89
2024-01-30T20:39:14.558Z,4.92
2024-01-30T20:44:19.236Z,4.95
2024-01-30T20:49:22.555Z,5.00
2024-01-30T20:54:27.067Z,5.10
2024-01-30T20:59:30.159Z,5.19
2024-01-30T21:04:33.652Z,5.21
2024-01-30T21:09:38.168Z,5.29
2024-01-30T21:14:41.267Z,5.31
2024-01-30T21:19:44.651Z,5.36
2024-01-30T21:24:49.170Z,5.39
2024-01-30T21:29:52.247Z,5.36
2024-01-30T21:34:55.372Z,5.41
2024-01-30T21:39:59.905Z,5.40
2024-01-30T21:45:03.079Z,5.38
2024-01-30T21:50:07.402Z,5.43
2024-01-30T21:55:11.901Z,5.40
2024-01-30T22:00:16.924Z,5.38
2024-01-30T22:05:20.609Z,5.36
2024-01-30T22:10:25.104Z,5.34
2024-01-30T22:15:30.092Z,5.33
2024-01-30T22:20:33.721Z,5.34
2024-01-30T22:25:38.269Z,5.40
2024-01-30T22:30:41.380Z,5.38
2024-01-30T22:35:44.508Z,5.39
2024-01-30T22:40:49.116Z,5.41
2024-01-30T22:45:52.269Z,5.40
2024-01-30T22:50:55.398Z,5.41
2024-01-30T22:55:59.844Z,5.43
2024-01-30T23:01:03.002Z,5.42
2024-01-30T23:06:06.591Z,5.44
2024-01-30T23:11:14.132Z,5.49
2024-01-30T23:16:17.310Z,5.51
2024-01-30T23:21:20.796Z,5.49
2024-01-30T23:26:25.378Z,5.50
2024-01-30T23:31:28.868Z,5.49
2024-01-30T23:36:33.119Z,5.51
2024-01-30T23:41:37.865Z,5.57
2024-01-30T23:46:41.309Z,5.71
2024-01-30T23:51:44.431Z,5.74
2024-01-30T23:56:48.911Z,5.93
